AAL1778 KRNO-KPHX
Flight info
| Callsign | AAL1778 |
|---|---|
| Flight time | N/A |
| Altitude | 35000 |
| Route | ZEFFR9 PESKE SHUFL Q13 PRFUM WOTRO BRUSR1 |
| Aircraft | A321/M-SDE3FGHIRWY/LB1 |
Departure
| Time | 2026-04-28 19:10 |
|---|---|
| Airport | Reno Tahoe International Airport (KRNO) |
Arrival
| Time | N/A |
|---|---|
| Airport | Phoenix Sky Harbor International Airport (KPHX) |
| Time | Latitude | Longitude | Altitude | Speed | Heading |
|---|---|---|---|---|---|
| 2026-04-28 18:40 | 39.50453 | -119.77238 | 4416 ft | 0 kts | 320° |
| 2026-04-28 19:00 | 39.50444 | -119.77228 | 4416 ft | 2 kts | 320° |
| 2026-04-28 19:00 | 39.50432 | -119.77216 | 4415 ft | 2 kts | 326° |
| 2026-04-28 19:00 | 39.50418 | -119.77209 | 4414 ft | 2 kts | 354° |
| 2026-04-28 19:01 | 39.50402 | -119.77210 | 4414 ft | 2 kts | 16° |
| 2026-04-28 19:01 | 39.50389 | -119.77219 | 4415 ft | 2 kts | 38° |
| 2026-04-28 19:01 | 39.50379 | -119.77232 | 4415 ft | 2 kts | 60° |
| 2026-04-28 19:01 | 39.50373 | -119.77251 | 4416 ft | 2 kts | 83° |
| 2026-04-28 19:02 | 39.50373 | -119.77261 | 4417 ft | 1 kts | 95° |
| 2026-04-28 19:02 | 39.50373 | -119.77267 | 4417 ft | 0 kts | 92° |
| 2026-04-28 19:04 | 39.50373 | -119.77245 | 4417 ft | 9 kts | 91° |
| 2026-04-28 19:04 | 39.50373 | -119.77135 | 4415 ft | 12 kts | 83° |
| 2026-04-28 19:05 | 39.50425 | -119.77068 | 4415 ft | 10 kts | 9° |
| 2026-04-28 19:05 | 39.50505 | -119.77065 | 4415 ft | 15 kts | 0° |
| 2026-04-28 19:05 | 39.50641 | -119.77065 | 4416 ft | 23 kts | 1° |
| 2026-04-28 19:05 | 39.50834 | -119.77062 | 4418 ft | 28 kts | 358° |
| 2026-04-28 19:06 | 39.51017 | -119.77067 | 4419 ft | 20 kts | 357° |
| 2026-04-28 19:06 | 39.51093 | -119.77030 | 4420 ft | 15 kts | 65° |
| 2026-04-28 19:06 | 39.51096 | -119.76858 | 4419 ft | 12 kts | 90° |
| 2026-04-28 19:06 | 39.51096 | -119.76811 | 4418 ft | 0 kts | 89° |
| 2026-04-28 19:08 | 39.51095 | -119.76736 | 4419 ft | 14 kts | 103° |
| 2026-04-28 19:09 | 39.50996 | -119.76678 | 4418 ft | 20 kts | 179° |
| 2026-04-28 19:09 | 39.50672 | -119.76675 | 4415 ft | 80 kts | 179° |
| 2026-04-28 19:09 | 39.49889 | -119.76674 | 4412 ft | 141 kts | 179° |
| 2026-04-28 19:09 | 39.48743 | -119.76680 | 4484 ft | 182 kts | 180° |
| 2026-04-28 19:10 | 39.47472 | -119.76730 | 5055 ft | 186 kts | 180° |
| 2026-04-28 19:10 | 39.46162 | -119.76759 | 5687 ft | 189 kts | 179° |
| 2026-04-28 19:10 | 39.44860 | -119.76769 | 6299 ft | 189 kts | 179° |
| 2026-04-28 19:10 | 39.43520 | -119.76789 | 6631 ft | 197 kts | 180° |
| 2026-04-28 19:11 | 39.42099 | -119.76851 | 6896 ft | 210 kts | 181° |
| 2026-04-28 19:11 | 39.40602 | -119.76899 | 7161 ft | 223 kts | 180° |
| 2026-04-28 19:11 | 39.39001 | -119.76926 | 7432 ft | 237 kts | 180° |
| 2026-04-28 19:11 | 39.37265 | -119.76942 | 7621 ft | 258 kts | 179° |
| 2026-04-28 19:12 | 39.35434 | -119.76952 | 7929 ft | 274 kts | 179° |
| 2026-04-28 19:12 | 39.33486 | -119.76929 | 8357 ft | 285 kts | 174° |
| 2026-04-28 19:12 | 39.31604 | -119.76165 | 8950 ft | 286 kts | 146° |
| 2026-04-28 19:12 | 39.30157 | -119.74461 | 9649 ft | 285 kts | 130° |
| 2026-04-28 19:13 | 39.28844 | -119.72536 | 10289 ft | 288 kts | 130° |
| 2026-04-28 19:13 | 39.27488 | -119.70535 | 10635 ft | 303 kts | 130° |
| 2026-04-28 19:13 | 39.26066 | -119.68452 | 10928 ft | 318 kts | 131° |
| 2026-04-28 19:13 | 39.24574 | -119.66286 | 11421 ft | 326 kts | 131° |
| 2026-04-28 19:14 | 39.23053 | -119.64085 | 12088 ft | 328 kts | 131° |
| 2026-04-28 19:14 | 39.21534 | -119.61895 | 12758 ft | 329 kts | 131° |
| 2026-04-28 19:14 | 39.20001 | -119.59689 | 13380 ft | 332 kts | 131° |
| 2026-04-28 19:14 | 39.18450 | -119.57459 | 13980 ft | 335 kts | 131° |
| 2026-04-28 19:15 | 39.16883 | -119.55209 | 14563 ft | 338 kts | 132° |
| 2026-04-28 19:15 | 39.15300 | -119.52992 | 15125 ft | 342 kts | 134° |
| 2026-04-28 19:15 | 39.13589 | -119.50829 | 15672 ft | 346 kts | 136° |
| 2026-04-28 19:15 | 39.12445 | -119.49405 | 16021 ft | 348 kts | 136° |
| 2026-04-28 19:16 | 39.10100 | -119.46496 | 16721 ft | 353 kts | 136° |
| 2026-04-28 19:16 | 39.08321 | -119.44289 | 17241 ft | 357 kts | 136° |
| 2026-04-28 19:16 | 39.06528 | -119.42063 | 17750 ft | 360 kts | 136° |
| 2026-04-28 19:16 | 39.04723 | -119.39825 | 18248 ft | 364 kts | 136° |
| 2026-04-28 19:17 | 39.02887 | -119.37549 | 18761 ft | 367 kts | 137° |
| 2026-04-28 19:17 | 39.01062 | -119.35291 | 19251 ft | 370 kts | 136° |
| 2026-04-28 19:17 | 38.99185 | -119.32968 | 19744 ft | 373 kts | 137° |
| 2026-04-28 19:17 | 38.97317 | -119.30657 | 20238 ft | 375 kts | 137° |
| 2026-04-28 19:18 | 38.95424 | -119.28316 | 20700 ft | 378 kts | 137° |
| 2026-04-28 19:18 | 38.93537 | -119.25983 | 21132 ft | 381 kts | 137° |
| 2026-04-28 19:18 | 38.91626 | -119.23628 | 21586 ft | 384 kts | 137° |
| 2026-04-28 19:18 | 38.89683 | -119.21229 | 22035 ft | 387 kts | 137° |
| 2026-04-28 19:19 | 38.87731 | -119.18822 | 22470 ft | 390 kts | 137° |
| 2026-04-28 19:19 | 38.85770 | -119.16403 | 22910 ft | 392 kts | 138° |
| 2026-04-28 19:19 | 38.83808 | -119.13987 | 23296 ft | 395 kts | 138° |
| 2026-04-28 19:19 | 38.81798 | -119.11515 | 23668 ft | 399 kts | 139° |
| 2026-04-28 19:20 | 38.79801 | -119.09064 | 24036 ft | 402 kts | 139° |
| 2026-04-28 19:20 | 38.77785 | -119.06559 | 24404 ft | 405 kts | 137° |
| 2026-04-28 19:20 | 38.75882 | -119.03941 | 24762 ft | 407 kts | 134° |
| 2026-04-28 19:20 | 38.73983 | -119.01203 | 25116 ft | 410 kts | 134° |
| 2026-04-28 19:21 | 38.72077 | -118.98450 | 25456 ft | 412 kts | 134° |
| 2026-04-28 19:21 | 38.70189 | -118.95715 | 25749 ft | 414 kts | 134° |
| 2026-04-28 19:21 | 38.68270 | -118.92944 | 26056 ft | 417 kts | 134° |
| 2026-04-28 19:21 | 38.66336 | -118.90157 | 26370 ft | 419 kts | 134° |
| 2026-04-28 19:22 | 38.64397 | -118.87360 | 26665 ft | 422 kts | 135° |
| 2026-04-28 19:22 | 38.63109 | -118.85506 | 26859 ft | 423 kts | 135° |
| 2026-04-28 19:22 | 38.60481 | -118.81730 | 27244 ft | 426 kts | 135° |
| 2026-04-28 19:22 | 38.58508 | -118.78896 | 27523 ft | 429 kts | 135° |
| 2026-04-28 19:23 | 38.56535 | -118.76063 | 27799 ft | 431 kts | 135° |
| 2026-04-28 19:23 | 38.54547 | -118.73214 | 28070 ft | 433 kts | 135° |
| 2026-04-28 19:23 | 38.52523 | -118.70316 | 28339 ft | 435 kts | 136° |
| 2026-04-28 19:23 | 38.50502 | -118.67422 | 28581 ft | 438 kts | 136° |
| 2026-04-28 19:24 | 38.48470 | -118.64520 | 28848 ft | 440 kts | 136° |
| 2026-04-28 19:24 | 38.46446 | -118.61633 | 29109 ft | 442 kts | 136° |
| 2026-04-28 19:24 | 38.44373 | -118.58671 | 29381 ft | 444 kts | 136° |
| 2026-04-28 19:24 | 38.42342 | -118.55774 | 29619 ft | 446 kts | 136° |
| 2026-04-28 19:25 | 38.40263 | -118.52814 | 29879 ft | 448 kts | 136° |
| 2026-04-28 19:25 | 38.38183 | -118.49854 | 30132 ft | 450 kts | 136° |
| 2026-04-28 19:25 | 38.36079 | -118.46863 | 30336 ft | 452 kts | 136° |
| 2026-04-28 19:25 | 38.34004 | -118.43914 | 30551 ft | 453 kts | 137° |
| 2026-04-28 19:26 | 38.31901 | -118.40933 | 30747 ft | 456 kts | 136° |
| 2026-04-28 19:26 | 38.29777 | -118.37921 | 30959 ft | 457 kts | 137° |
| 2026-04-28 19:26 | 38.27648 | -118.34905 | 31168 ft | 459 kts | 137° |
| 2026-04-28 19:26 | 38.25525 | -118.31901 | 31398 ft | 459 kts | 137° |
| 2026-04-28 19:27 | 38.23378 | -118.28861 | 31697 ft | 457 kts | 138° |
| 2026-04-28 19:27 | 38.21260 | -118.25870 | 31989 ft | 456 kts | 137° |
| 2026-04-28 19:27 | 38.19163 | -118.22915 | 32216 ft | 456 kts | 137° |
| 2026-04-28 19:27 | 38.17051 | -118.19937 | 32478 ft | 455 kts | 137° |
| 2026-04-28 19:28 | 38.14914 | -118.16923 | 32736 ft | 454 kts | 137° |
| 2026-04-28 19:28 | 38.12826 | -118.13984 | 32955 ft | 454 kts | 138° |
| 2026-04-28 19:28 | 38.10693 | -118.10986 | 33201 ft | 454 kts | 137° |
| 2026-04-28 19:28 | 38.08599 | -118.08046 | 33423 ft | 454 kts | 138° |
| 2026-04-28 19:29 | 38.06478 | -118.05070 | 33599 ft | 455 kts | 138° |
| 2026-04-28 19:29 | 38.05063 | -118.03084 | 33723 ft | 455 kts | 138° |
| 2026-04-28 19:29 | 38.02232 | -117.99116 | 33966 ft | 456 kts | 138° |
| 2026-04-28 19:29 | 38.00109 | -117.96144 | 34138 ft | 457 kts | 138° |
| 2026-04-28 19:30 | 37.97968 | -117.93153 | 34316 ft | 457 kts | 138° |
| 2026-04-28 19:30 | 37.95854 | -117.90201 | 34476 ft | 458 kts | 138° |
| 2026-04-28 19:30 | 37.93706 | -117.87202 | 34616 ft | 459 kts | 138° |
| 2026-04-28 19:30 | 37.91566 | -117.84219 | 34747 ft | 461 kts | 138° |
| 2026-04-28 19:31 | 37.89413 | -117.81218 | 34897 ft | 462 kts | 138° |
| 2026-04-28 19:31 | 37.87249 | -117.78204 | 35053 ft | 462 kts | 138° |
| 2026-04-28 19:31 | 37.82937 | -117.72210 | 35149 ft | 463 kts | 138° |
| 2026-04-28 19:32 | 37.78478 | -117.66305 | 35150 ft | 460 kts | 143° |
| 2026-04-28 19:32 | 37.73637 | -117.61134 | 35151 ft | 456 kts | 149° |
| 2026-04-28 19:33 | 37.68618 | -117.56229 | 35159 ft | 456 kts | 149° |
| 2026-04-28 19:33 | 37.63626 | -117.51352 | 35163 ft | 455 kts | 149° |
| 2026-04-28 19:34 | 37.58634 | -117.46477 | 35160 ft | 456 kts | 149° |
| 2026-04-28 19:34 | 37.53624 | -117.41588 | 35156 ft | 457 kts | 149° |
| 2026-04-28 19:35 | 37.48579 | -117.36678 | 35160 ft | 456 kts | 149° |
| 2026-04-28 19:35 | 37.43595 | -117.31829 | 35157 ft | 456 kts | 150° |
| 2026-04-28 19:36 | 37.38571 | -117.26957 | 35165 ft | 457 kts | 151° |
| 2026-04-28 19:36 | 37.33525 | -117.22147 | 35169 ft | 455 kts | 152° |
| 2026-04-28 19:37 | 37.29314 | -117.18176 | 35170 ft | 455 kts | 152° |
| 2026-04-28 19:37 | 37.23270 | -117.12951 | 35162 ft | 451 kts | 155° |
| 2026-04-28 19:38 | 37.18074 | -117.08574 | 35152 ft | 452 kts | 155° |
| 2026-04-28 19:38 | 37.12837 | -117.04165 | 35159 ft | 453 kts | 155° |
| 2026-04-28 19:39 | 37.07626 | -116.99779 | 35154 ft | 453 kts | 156° |
| 2026-04-28 19:39 | 37.02408 | -116.95399 | 35151 ft | 450 kts | 156° |
| 2026-04-28 19:40 | 36.97204 | -116.91035 | 35143 ft | 451 kts | 156° |
| 2026-04-28 19:40 | 36.91991 | -116.86673 | 35141 ft | 452 kts | 157° |
| 2026-04-28 19:41 | 36.86755 | -116.82301 | 35137 ft | 452 kts | 157° |
| 2026-04-28 19:41 | 36.81552 | -116.77957 | 35126 ft | 453 kts | 157° |
| 2026-04-28 19:42 | 36.76297 | -116.73576 | 35123 ft | 454 kts | 158° |
| 2026-04-28 19:42 | 36.71907 | -116.69925 | 35117 ft | 452 kts | 158° |
| 2026-04-28 19:43 | 36.65926 | -116.64615 | 35116 ft | 462 kts | 151° |
| 2026-04-28 19:43 | 36.61335 | -116.58884 | 35114 ft | 481 kts | 140° |
| 2026-04-28 19:44 | 36.57475 | -116.51879 | 35114 ft | 497 kts | 128° |
| 2026-04-28 19:44 | 36.54388 | -116.44247 | 35111 ft | 500 kts | 125° |
| 2026-04-28 19:45 | 36.51335 | -116.36481 | 35107 ft | 501 kts | 125° |
| 2026-04-28 19:45 | 36.48253 | -116.28716 | 35093 ft | 500 kts | 127° |
| 2026-04-28 19:46 | 36.46710 | -116.24855 | 35233 ft | 499 kts | 126° |
| 2026-04-28 19:46 | 36.45186 | -116.21055 | 35158 ft | 497 kts | 127° |
| 2026-04-28 19:46 | 36.42074 | -116.13339 | 35127 ft | 499 kts | 127° |
| 2026-04-28 19:47 | 36.38972 | -116.05660 | 35123 ft | 499 kts | 127° |
| 2026-04-28 19:47 | 36.35856 | -115.97972 | 35123 ft | 501 kts | 127° |
| 2026-04-28 19:48 | 36.32745 | -115.90309 | 35127 ft | 502 kts | 127° |
| 2026-04-28 19:48 | 36.29602 | -115.82584 | 35128 ft | 502 kts | 127° |
| 2026-04-28 19:49 | 36.26457 | -115.74869 | 35128 ft | 502 kts | 127° |
| 2026-04-28 19:49 | 36.23333 | -115.67223 | 35124 ft | 502 kts | 127° |
| 2026-04-28 19:50 | 36.18586 | -115.55654 | 35125 ft | 502 kts | 127° |
| 2026-04-28 19:51 | 36.15432 | -115.47984 | 35147 ft | 502 kts | 127° |
| 2026-04-28 19:51 | 36.12281 | -115.40346 | 35154 ft | 504 kts | 127° |
| 2026-04-28 19:52 | 36.09101 | -115.32639 | 35137 ft | 502 kts | 127° |
| 2026-04-28 19:52 | 36.05918 | -115.24958 | 35123 ft | 503 kts | 127° |
| 2026-04-28 19:53 | 36.02743 | -115.17298 | 35101 ft | 501 kts | 128° |
| 2026-04-28 19:53 | 35.99576 | -115.09692 | 35091 ft | 501 kts | 128° |
| 2026-04-28 19:54 | 35.96377 | -115.02037 | 35094 ft | 504 kts | 128° |
| 2026-04-28 19:54 | 35.93179 | -114.94383 | 35096 ft | 503 kts | 127° |
| 2026-04-28 19:55 | 35.89997 | -114.86779 | 35090 ft | 501 kts | 128° |
| 2026-04-28 19:55 | 35.86795 | -114.79159 | 35082 ft | 502 kts | 128° |
| 2026-04-28 19:56 | 35.83597 | -114.71564 | 35078 ft | 502 kts | 127° |
| 2026-04-28 19:56 | 35.80367 | -114.63908 | 35076 ft | 502 kts | 127° |
| 2026-04-28 19:57 | 35.77168 | -114.56344 | 35080 ft | 503 kts | 127° |
| 2026-04-28 19:57 | 35.73947 | -114.48733 | 35086 ft | 500 kts | 127° |
| 2026-04-28 19:58 | 35.70725 | -114.41155 | 35093 ft | 502 kts | 127° |
| 2026-04-28 19:58 | 35.67490 | -114.33556 | 35097 ft | 501 kts | 128° |
| 2026-04-28 19:59 | 35.64268 | -114.26000 | 35109 ft | 500 kts | 128° |
| 2026-04-28 19:59 | 35.61041 | -114.18458 | 35113 ft | 501 kts | 128° |
| 2026-04-28 20:00 | 35.57818 | -114.10934 | 35112 ft | 500 kts | 128° |
| 2026-04-28 20:00 | 35.54584 | -114.03394 | 35108 ft | 499 kts | 128° |
| 2026-04-28 20:01 | 35.51310 | -113.95837 | 35109 ft | 499 kts | 129° |
| 2026-04-28 20:01 | 35.47699 | -113.88739 | 35114 ft | 491 kts | 134° |
| 2026-04-28 20:02 | 35.43905 | -113.81756 | 35126 ft | 491 kts | 134° |
| 2026-04-28 20:02 | 35.40132 | -113.74817 | 35135 ft | 492 kts | 134° |
| 2026-04-28 20:03 | 35.36347 | -113.67833 | 35144 ft | 491 kts | 134° |
| 2026-04-28 20:03 | 35.32576 | -113.60890 | 35149 ft | 492 kts | 134° |
| 2026-04-28 20:04 | 35.28798 | -113.53947 | 35059 ft | 493 kts | 134° |
| 2026-04-28 20:04 | 35.26918 | -113.50491 | 34784 ft | 490 kts | 134° |
| 2026-04-28 20:04 | 35.25033 | -113.47027 | 34448 ft | 487 kts | 134° |
| 2026-04-28 20:04 | 35.23154 | -113.43581 | 33982 ft | 484 kts | 134° |
| 2026-04-28 20:05 | 35.21304 | -113.40196 | 33441 ft | 483 kts | 134° |
| 2026-04-28 20:05 | 35.19435 | -113.36784 | 32833 ft | 483 kts | 134° |
| 2026-04-28 20:05 | 35.17565 | -113.33375 | 32178 ft | 484 kts | 134° |
| 2026-04-28 20:05 | 35.15700 | -113.29972 | 31509 ft | 485 kts | 133° |
| 2026-04-28 20:06 | 35.13830 | -113.26547 | 30813 ft | 486 kts | 133° |
| 2026-04-28 20:06 | 35.11967 | -113.23126 | 30204 ft | 484 kts | 133° |
| 2026-04-28 20:06 | 35.10128 | -113.19744 | 29745 ft | 479 kts | 133° |
| 2026-04-28 20:06 | 35.08286 | -113.16369 | 29278 ft | 474 kts | 133° |
| 2026-04-28 20:07 | 35.06467 | -113.13057 | 28973 ft | 467 kts | 133° |
| 2026-04-28 20:07 | 35.02831 | -113.06493 | 29025 ft | 469 kts | 133° |
| 2026-04-28 20:08 | 34.99170 | -112.99894 | 29071 ft | 471 kts | 133° |
| 2026-04-28 20:08 | 34.96817 | -112.95650 | 29106 ft | 471 kts | 133° |
| 2026-04-28 20:09 | 34.94252 | -112.91028 | 29141 ft | 470 kts | 133° |
| 2026-04-28 20:09 | 34.90601 | -112.84457 | 29181 ft | 471 kts | 133° |
| 2026-04-28 20:10 | 34.86929 | -112.77866 | 29191 ft | 472 kts | 133° |
| 2026-04-28 20:10 | 34.83236 | -112.71242 | 29183 ft | 471 kts | 133° |
| 2026-04-28 20:10 | 34.81416 | -112.67989 | 28887 ft | 473 kts | 133° |
| 2026-04-28 20:11 | 34.79564 | -112.64677 | 28292 ft | 471 kts | 133° |
| 2026-04-28 20:11 | 34.77735 | -112.61399 | 27772 ft | 468 kts | 132° |
| 2026-04-28 20:11 | 34.75915 | -112.58147 | 27277 ft | 464 kts | 132° |
| 2026-04-28 20:11 | 34.74104 | -112.54912 | 26792 ft | 460 kts | 132° |
| 2026-04-28 20:12 | 34.72304 | -112.51705 | 26314 ft | 455 kts | 133° |
| 2026-04-28 20:12 | 34.70405 | -112.48741 | 25846 ft | 443 kts | 139° |
| 2026-04-28 20:12 | 34.68273 | -112.46102 | 25375 ft | 431 kts | 146° |
| 2026-04-28 20:12 | 34.66776 | -112.44550 | 25072 ft | 425 kts | 149° |
| 2026-04-28 20:13 | 34.63746 | -112.41596 | 24452 ft | 419 kts | 150° |
| 2026-04-28 20:13 | 34.61457 | -112.39394 | 23985 ft | 415 kts | 150° |
| 2026-04-28 20:13 | 34.59218 | -112.37230 | 23528 ft | 412 kts | 150° |
| 2026-04-28 20:13 | 34.56992 | -112.35068 | 23075 ft | 408 kts | 149° |
| 2026-04-28 20:14 | 34.54808 | -112.32942 | 22624 ft | 405 kts | 150° |
| 2026-04-28 20:14 | 34.52626 | -112.30817 | 22165 ft | 402 kts | 149° |
| 2026-04-28 20:14 | 34.50435 | -112.28680 | 21693 ft | 399 kts | 149° |
| 2026-04-28 20:14 | 34.48304 | -112.26605 | 21236 ft | 397 kts | 149° |
| 2026-04-28 20:15 | 34.46125 | -112.24551 | 20811 ft | 388 kts | 154° |
| 2026-04-28 20:15 | 34.43815 | -112.23035 | 20567 ft | 368 kts | 166° |
| 2026-04-28 20:15 | 34.41409 | -112.22118 | 20108 ft | 357 kts | 175° |
| 2026-04-28 20:15 | 34.39005 | -112.21489 | 19655 ft | 354 kts | 176° |
| 2026-04-28 20:16 | 34.36599 | -112.20893 | 19203 ft | 352 kts | 176° |
| 2026-04-28 20:16 | 34.34232 | -112.20305 | 18767 ft | 350 kts | 176° |
| 2026-04-28 20:16 | 34.31818 | -112.19693 | 18322 ft | 348 kts | 175° |
| 2026-04-28 20:16 | 34.29465 | -112.19092 | 17889 ft | 347 kts | 175° |
| 2026-04-28 20:17 | 34.27116 | -112.18490 | 17443 ft | 345 kts | 174° |
| 2026-04-28 20:17 | 34.24767 | -112.17884 | 17012 ft | 343 kts | 174° |
| 2026-04-28 20:17 | 34.22451 | -112.17285 | 16582 ft | 341 kts | 174° |
| 2026-04-28 20:17 | 34.20113 | -112.16679 | 16154 ft | 339 kts | 174° |
| 2026-04-28 20:18 | 34.17827 | -112.16090 | 15725 ft | 338 kts | 174° |
| 2026-04-28 20:18 | 34.16303 | -112.15695 | 15439 ft | 336 kts | 174° |
| 2026-04-28 20:18 | 34.13267 | -112.14911 | 14875 ft | 334 kts | 173° |
| 2026-04-28 20:18 | 34.11020 | -112.14332 | 14665 ft | 325 kts | 173° |
| 2026-04-28 20:19 | 34.08829 | -112.13924 | 14539 ft | 309 kts | 181° |
| 2026-04-28 20:19 | 34.06722 | -112.13905 | 14238 ft | 301 kts | 188° |
| 2026-04-28 20:19 | 34.04637 | -112.14117 | 13830 ft | 300 kts | 190° |
| 2026-04-28 20:19 | 34.02552 | -112.14363 | 13435 ft | 298 kts | 190° |
| 2026-04-28 20:20 | 34.00483 | -112.14606 | 13045 ft | 297 kts | 190° |
| 2026-04-28 20:20 | 33.98430 | -112.14844 | 12676 ft | 296 kts | 189° |
| 2026-04-28 20:20 | 33.96405 | -112.15073 | 12292 ft | 295 kts | 189° |
| 2026-04-28 20:20 | 33.94353 | -112.15301 | 11907 ft | 294 kts | 189° |
| 2026-04-28 20:21 | 33.92326 | -112.15528 | 11525 ft | 293 kts | 189° |
| 2026-04-28 20:21 | 33.90309 | -112.15822 | 11142 ft | 291 kts | 193° |
| 2026-04-28 20:21 | 33.88296 | -112.16241 | 10763 ft | 290 kts | 193° |
| 2026-04-28 20:21 | 33.86318 | -112.16660 | 10378 ft | 290 kts | 193° |
| 2026-04-28 20:22 | 33.84328 | -112.17084 | 9992 ft | 290 kts | 193° |
| 2026-04-28 20:22 | 33.82339 | -112.17504 | 9612 ft | 290 kts | 193° |
| 2026-04-28 20:22 | 33.80336 | -112.17929 | 9238 ft | 290 kts | 193° |
| 2026-04-28 20:22 | 33.78380 | -112.18344 | 8933 ft | 286 kts | 192° |
| 2026-04-28 20:23 | 33.76429 | -112.18756 | 8735 ft | 279 kts | 192° |
| 2026-04-28 20:23 | 33.74536 | -112.19154 | 8564 ft | 271 kts | 192° |
| 2026-04-28 20:23 | 33.72706 | -112.19540 | 8318 ft | 267 kts | 192° |
| 2026-04-28 20:23 | 33.70864 | -112.19928 | 8061 ft | 263 kts | 192° |
| 2026-04-28 20:24 | 33.69079 | -112.20305 | 7868 ft | 256 kts | 192° |
| 2026-04-28 20:24 | 33.67352 | -112.20668 | 7667 ft | 251 kts | 192° |
| 2026-04-28 20:24 | 33.65637 | -112.21033 | 7312 ft | 252 kts | 191° |
| 2026-04-28 20:24 | 33.63907 | -112.21401 | 6971 ft | 253 kts | 191° |
| 2026-04-28 20:25 | 33.62158 | -112.21770 | 6638 ft | 253 kts | 191° |
| 2026-04-28 20:25 | 33.60428 | -112.22134 | 6313 ft | 253 kts | 191° |
| 2026-04-28 20:25 | 33.58693 | -112.22501 | 5990 ft | 253 kts | 191° |
| 2026-04-28 20:25 | 33.57003 | -112.22862 | 5946 ft | 241 kts | 191° |
| 2026-04-28 20:26 | 33.55341 | -112.23219 | 5969 ft | 241 kts | 191° |
| 2026-04-28 20:26 | 33.53699 | -112.23571 | 5984 ft | 241 kts | 191° |